Time;durP1;ratioP1;P1;durP2;ratioP2;P2;SDS_P1;SDS_P2;PMS_P1;PMS_P2;Temp;Humidity;BMP_temperature;BMP_pressure;BME280_temperature;BME280_humidity;BME280_pressure;Samples;Min_cycle;Max_cycle;Signal;HPM_P1;HPM_P2
2023/10/18 00:01:54;;;;;;;;;;;;;;;11.07;100.00;100027.72;5095070;28;1058;-66
2023/10/18 00:04:23;;;;;;;;;;;;;;;11.07;100.00;100025.72;5093446;28;1439;-65
2023/10/18 00:06:54;;;;;;;;;;;;;;;11.13;100.00;100020.59;5095428;28;859;-65
2023/10/18 00:12:08;;;;;;;;;;;;;;;11.01;100.00;100030.91;5094763;28;1971;-64
2023/10/18 00:14:35;;;;;;;;;;;;;;;10.96;100.00;100023.00;5093374;28;1151;-64
2023/10/18 00:17:01;;;;;;;;;;;;;;;10.94;100.00;100021.84;5094808;28;814;-65
2023/10/18 00:19:28;;;;;;;;;;;;;;;10.92;100.00;100026.97;5094681;28;838;-66
2023/10/18 00:21:54;;;;;;;;;;;;;;;10.95;100.00;100017.88;5093215;28;1179;-66
2023/10/18 00:24:21;;;;;;;;;;;;;;;10.97;100.00;100016.31;5094733;28;866;-64
2023/10/18 00:26:48;;;;;;;;;;;;;;;10.96;100.00;100023.00;5094615;28;877;-64
2023/10/18 00:29:14;;;;;;;;;;;;;;;10.99;100.00;100018.66;5094748;28;819;-64
2023/10/18 00:31:41;;;;;;;;;;;;;;;11.00;100.00;100020.22;5094597;28;862;-65
2023/10/18 00:34:08;;;;;;;;;;;;;;;10.99;100.00;100019.47;5094444;28;1881;-64
2023/10/18 00:36:34;;;;;;;;;;;;;;;10.97;100.00;100013.53;5094819;28;764;-65
2023/10/18 00:39:14;;;;;;;;;;;;;;;10.97;100.00;100012.75;5094271;28;819;-66
2023/10/18 00:41:44;;;;;;;;;;;;;;;10.95;100.00;100018.66;5094221;28;898;-65
2023/10/18 00:44:11;;;;;;;;;;;;;;;10.94;100.00;100016.31;5094178;28;855;-65
2023/10/18 00:46:39;;;;;;;;;;;;;;;10.91;100.00;100014.34;5094170;28;808;-66
2023/10/18 00:49:14;;;;;;;;;;;;;;;10.89;100.00;100013.97;5094187;28;792;-66
2023/10/18 00:51:41;;;;;;;;;;;;;;;10.87;100.00;100021.88;5094138;28;815;-65
2023/10/18 00:54:11;;;;;;;;;;;;;;;10.87;100.00;100017.13;5093850;28;1881;-66
2023/10/18 00:56:39;;;;;;;;;;;;;;;10.88;100.00;100012.38;5092704;28;1542;-66
2023/10/18 00:59:14;;;;;;;;;;;;;;;10.87;100.00;100008.81;5092603;28;1164;-65
2023/10/18 01:01:43;;;;;;;;;;;;;;;10.88;100.00;100006.84;5092457;28;1300;-66
2023/10/18 01:04:12;;;;;;;;;;;;;;;10.87;100.00;100017.13;5093516;28;1416;-66
2023/10/18 01:06:50;;;;;;;;;;;;;;;10.87;100.00;100011.59;5093724;28;831;-66
2023/10/18 01:11:10;;;;;;;;;;;;;;;10.92;100.00;100016.69;5150922;27;1313;-66
2023/10/18 01:13:40;;;;;;;;;;;;;;;10.88;100.00;100004.88;5151053;27;869;-66
2023/10/18 01:16:21;;;;;;;;;;;;;;;10.63;100.00;100010.47;5151106;27;845;-66
2023/10/18 01:18:48;;;;;;;;;;;;;;;10.19;100.00;100008.88;5150934;27;869;-67
2023/10/18 01:21:22;;;;;;;;;;;;;;;10.01;100.00;100017.19;5150863;27;826;-66
2023/10/18 01:23:54;;;;;;;;;;;;;;;9.89;100.00;100015.56;5150760;27;849;-66
2023/10/18 01:26:21;;;;;;;;;;;;;;;9.83;100.00;100022.66;5150895;27;833;-67
2023/10/18 01:28:48;;;;;;;;;;;;;;;9.84;100.00;100018.72;5150516;27;1914;-68
2023/10/18 01:31:15;;;;;;;;;;;;;;;9.86;100.00;100023.84;5150607;27;813;-68
2023/10/18 01:33:50;;;;;;;;;;;;;;;9.83;100.00;100014.38;5150537;27;834;-67
2023/10/18 01:36:17;;;;;;;;;;;;;;;9.75;100.00;100015.53;5150907;27;913;-68
2023/10/18 01:38:48;;;;;;;;;;;;;;;9.73;100.00;100015.13;5150263;27;908;-67
2023/10/18 01:41:33;;;;;;;;;;;;;;;9.71;100.00;100015.56;5131931;27;1220;-66
2023/10/18 01:44:06;;;;;;;;;;;;;;;9.65;100.00;100013.56;5150354;27;884;-66
2023/10/18 01:46:34;;;;;;;;;;;;;;;9.63;100.00;100013.16;5150356;27;847;-67
2023/10/18 01:49:01;;;;;;;;;;;;;;;9.64;100.00;100015.53;5150870;27;1889;-67
2023/10/18 01:51:28;;;;;;;;;;;;;;;9.69;100.00;100015.16;5150266;27;902;-67
2023/10/18 01:53:55;;;;;;;;;;;;;;;9.75;100.00;100008.06;5150257;27;1190;-67
2023/10/18 01:56:21;;;;;;;;;;;;;;;9.82;100.00;100008.06;5150210;27;1215;-67
2023/10/18 01:58:49;;;;;;;;;;;;;;;9.90;100.00;100017.16;5150178;27;833;-68
2023/10/18 02:01:16;;;;;;;;;;;;;;;9.96;100.00;100010.06;5150389;27;860;-68
2023/10/18 02:03:49;;;;;;;;;;;;;;;10.01;100.00;100012.44;5150142;27;849;-67
2023/10/18 02:06:17;;;;;;;;;;;;;;;10.10;100.00;100011.25;5149979;27;834;-68
2023/10/18 02:08:44;;;;;;;;;;;;;;;10.20;100.00;100016.00;5149362;27;1968;-67
2023/10/18 02:11:11;;;;;;;;;;;;;;;10.25;100.00;100003.75;5149985;27;893;-67
2023/10/18 02:13:38;;;;;;;;;;;;;;;10.30;100.00;100009.69;5149828;27;818;-68
2023/10/18 02:16:19;;;;;;;;;;;;;;;10.37;100.00;100020.75;5149828;27;825;-68
2023/10/18 02:18:49;;;;;;;;;;;;;;;10.38;100.00;100013.25;5150331;27;766;-68
2023/10/18 02:21:16;;;;;;;;;;;;;;;10.38;100.00;100024.31;5142461;27;841;-68
2023/10/18 02:23:46;;;;;;;;;;;;;;;10.36;100.00;100021.94;5135845;27;899;-68
2023/10/18 02:26:32;;;;;;;;;;;;;;;10.33;100.00;100011.69;5135862;27;873;-68
2023/10/18 02:29:00;;;;;;;;;;;;;;;10.21;100.00;100003.75;5135792;27;1981;-68
2023/10/18 02:31:28;;;;;;;;;;;;;;;10.15;100.00;100010.84;5135590;27;877;-68
2023/10/18 02:33:56;;;;;;;;;;;;;;;10.15;100.00;100010.84;5135749;27;829;-68
2023/10/18 02:36:38;;;;;;;;;;;;;;;10.13;100.00;100013.22;5135436;27;925;-68
2023/10/18 02:39:09;;;;;;;;;;;;;;;10.14;100.00;100003.75;5117525;27;1281;-69
2023/10/18 02:41:38;;;;;;;;;;;;;;;10.14;100.00;100004.53;5135499;27;924;-68
2023/10/18 02:44:11;;;;;;;;;;;;;;;10.08;100.00;100003.34;5135535;27;860;-70
2023/10/18 02:46:38;;;;;;;;;;;;;;;10.04;100.00;100001.78;5135429;27;817;-68
2023/10/18 02:49:08;;;;;;;;;;;;;;;9.97;100.00;100006.13;5135230;27;1951;-69
2023/10/18 02:51:36;;;;;;;;;;;;;;;9.91;100.00;99996.63;5135371;27;861;-70
2023/10/18 02:56:41;;;;;;;;;;;;;;;9.96;100.00;99998.22;5135230;27;812;-68
2023/10/18 02:59:08;;;;;;;;;;;;;;;9.95;100.00;100000.19;5135218;27;823;-68
2023/10/18 03:01:43;;;;;;;;;;;;;;;9.98;100.00;99999.41;5135098;27;873;-69
2023/10/18 03:04:14;;;;;;;;;;;;;;;10.05;100.00;99997.81;5135085;27;861;-69
2023/10/18 03:06:42;;;;;;;;;;;;;;;10.00;100.00;99994.28;5134907;27;814;-69
2023/10/18 03:09:25;;;;;;;;;;;;;;;10.04;100.00;99993.50;5134512;27;1938;-70
2023/10/18 03:11:53;;;;;;;;;;;;;;;10.11;100.00;99985.19;5134874;27;1044;-69
2023/10/18 03:17:19;;;;;;;;;;;;;;;10.21;100.00;99987.97;5134805;27;831;-69
2023/10/18 03:19:54;;;;;;;;;;;;;;;10.26;100.00;99991.50;5134728;27;882;-69
2023/10/18 03:22:22;;;;;;;;;;;;;;;10.24;100.00;99983.63;5134724;27;849;-69
2023/10/18 03:24:53;;;;;;;;;;;;;;;10.22;100.00;99992.31;5134620;27;881;-71
2023/10/18 03:27:20;;;;;;;;;;;;;;;10.14;100.00;99990.75;5134786;27;869;-69
2023/10/18 03:29:47;;;;;;;;;;;;;;;10.09;100.00;99991.16;5134478;27;1952;-69
2023/10/18 03:32:19;;;;;;;;;;;;;;;10.05;100.00;99990.34;5133889;27;939;-69
2023/10/18 03:34:46;;;;;;;;;;;;;;;10.05;100.00;99987.59;5134221;27;850;-70
2023/10/18 03:37:24;;;;;;;;;;;;;;;10.02;100.00;99993.88;5134357;27;825;-69
2023/10/18 03:39:55;;;;;;;;;;;;;;;10.04;100.00;99991.53;5115992;27;1440;-70
2023/10/18 03:42:55;;;;;;;;;;;;;;;10.07;100.00;99992.69;5134270;27;875;-69
2023/10/18 03:45:20;;;;;;;;;;;;;;;10.10;100.00;99998.22;5129843;27;1185;-70
2023/10/18 03:47:57;;;;;;;;;;;;;;;10.16;100.00;99995.88;5134276;27;899;-70
2023/10/18 03:51:00;;;;;;;;;;;;;;;10.16;100.00;99993.13;5134114;27;1890;-71
2023/10/18 03:53:18;;;;;;;;;;;;;;;10.16;100.00;100007.72;5129389;27;1111;-70
2023/10/18 03:55:45;;;;;;;;;;;;;;;10.19;100.00;100004.13;5134204;27;809;-69
2023/10/18 03:58:22;;;;;;;;;;;;;;;10.25;100.00;99993.50;5134189;27;821;-70
2023/10/18 04:00:54;;;;;;;;;;;;;;;10.27;100.00;99995.88;5133918;27;908;-70
2023/10/18 04:03:21;;;;;;;;;;;;;;;10.31;100.00;99993.94;5133862;27;900;-71
2023/10/18 04:05:53;;;;;;;;;;;;;;;10.33;100.00;99997.88;5133816;27;829;-71
2023/10/18 04:08:20;;;;;;;;;;;;;;;10.37;100.00;99995.06;5133906;27;833;-71
2023/10/18 04:11:00;;;;;;;;;;;;;;;10.42;100.00;99998.25;5133761;27;1909;-72
2023/10/18 04:13:31;;;;;;;;;;;;;;;10.41;100.00;99991.16;5133599;27;920;-71
2023/10/18 04:16:04;;;;;;;;;;;;;;;10.34;100.00;99993.13;5133957;27;905;-71
2023/10/18 04:18:30;;;;;;;;;;;;;;;10.26;100.00;99983.22;5133610;27;823;-70
2023/10/18 04:21:00;;;;;;;;;;;;;;;10.19;100.00;99981.25;5133695;27;1035;-71
2023/10/18 04:23:26;;;;;;;;;;;;;;;10.14;100.00;99979.69;5133515;27;853;-70
2023/10/18 04:28:28;;;;;;;;;;;;;;;10.15;100.00;99972.19;5133404;27;807;-71
2023/10/18 04:30:59;;;;;;;;;;;;;;;10.20;100.00;99972.59;5133362;27;1952;-70
2023/10/18 04:33:36;;;;;;;;;;;;;;;10.29;100.00;99974.16;5133374;27;853;-70
2023/10/18 04:36:06;;;;;;;;;;;;;;;10.33;100.00;99975.75;5133330;27;884;-69
2023/10/18 04:38:39;;;;;;;;;;;;;;;10.40;100.00;99972.19;5133294;27;823;-68
2023/10/18 04:41:07;;;;;;;;;;;;;;;10.52;100.00;99968.22;5133373;27;857;-69
2023/10/18 04:43:34;;;;;;;;;;;;;;;10.62;100.00;99970.16;5133252;27;837;-69
2023/10/18 04:46:14;;;;;;;;;;;;;;;10.71;100.00;99978.84;5133219;27;884;-68
2023/10/18 04:54:59;;;;;;;;;;;;;;;10.97;100.00;99982.31;5114426;27;1207;-69
2023/10/18 04:57:15;;;;;;;;;;;;;;;11.06;100.00;99979.91;5128564;27;1103;-69
2023/10/18 04:59:45;;;;;;;;;;;;;;;11.15;100.00;99974.72;5133137;27;888;-69
2023/10/18 05:02:17;;;;;;;;;;;;;;;11.28;100.00;99968.75;5132925;27;828;-68
2023/10/18 05:04:46;;;;;;;;;;;;;;;11.34;100.00;99973.44;5133174;27;912;-68
2023/10/18 05:09:43;;;;;;;;;;;;;;;11.48;100.00;99985.63;5132401;28;1910;-68
2023/10/18 05:17:47;;;;;;;;;;;;;;;11.50;100.00;99997.09;5132751;28;828;-67
2023/10/18 05:22:59;;;;;;;;;;;;;;;11.51;100.00;99998.69;5132706;28;785;-66
2023/10/18 05:25:45;;;;;;;;;;;;;;;11.53;100.00;99996.28;5132976;28;869;-68
2023/10/18 05:28:24;;;;;;;;;;;;;;;11.51;100.00;100009.75;5132643;28;1172;-67
2023/10/18 05:36:29;;;;;;;;;;;;;;;11.55;100.00;100002.22;5132577;28;760;-67
2023/10/18 05:38:53;;;;;;;;;;;;;;;11.53;100.00;100002.63;5131459;28;1150;-68
2023/10/18 05:41:29;;;;;;;;;;;;;;;11.60;100.00;100010.09;5132521;28;845;-68
2023/10/18 05:44:00;;;;;;;;;;;;;;;11.65;100.00;100009.69;5132783;28;821;-69
2023/10/18 05:46:28;;;;;;;;;;;;;;;11.73;100.00;100015.94;5132622;28;889;-70
2023/10/18 05:48:57;;;;;;;;;;;;;;;11.77;100.00;100019.47;5132381;28;1944;-71
2023/10/18 05:54:01;;;;;;;;;;;;;;;11.83;100.00;100015.88;5132399;28;772;-69
2023/10/18 05:56:34;;;;;;;;;;;;;;;11.86;100.00;100014.25;5133941;27;1202;-69
2023/10/18 06:01:47;;;;;;;;;;;;;;;11.99;100.00;100006.28;5136182;27;860;-70
2023/10/18 06:04:14;;;;;;;;;;;;;;;12.10;100.00;100020.88;5136198;27;894;-73
2023/10/18 06:06:43;;;;;;;;;;;;;;;12.18;100.00;100007.72;5117799;27;1186;-70
2023/10/18 06:09:25;;;;;;;;;;;;;;;12.22;100.00;100005.72;5135697;27;2000;-70
2023/10/18 06:11:52;;;;;;;;;;;;;;;12.31;100.00;100011.59;5136507;27;842;-68
2023/10/18 06:14:18;;;;;;;;;;;;;;;12.34;100.00;100013.53;5117730;27;1220;-70
2023/10/18 06:16:51;;;;;;;;;;;;;;;12.35;100.00;100012.31;5135974;27;845;-69
2023/10/18 06:19:27;;;;;;;;;;;;;;;12.40;100.00;100017.44;5135949;27;842;-69
2023/10/18 06:21:59;;;;;;;;;;;;;;;12.40;100.00;100014.69;5136034;27;833;-70
2023/10/18 06:24:26;;;;;;;;;;;;;;;12.37;100.00;100020.25;5117672;27;1312;-69
2023/10/18 06:26:53;;;;;;;;;;;;;;;12.49;100.00;100025.28;5135959;27;818;-68
2023/10/18 06:29:22;;;;;;;;;;;;;;;12.65;100.00;100020.00;5117151;27;1885;-69
2023/10/18 06:31:49;;;;;;;;;;;;;;;12.65;100.00;100013.63;5135799;27;1185;-69
2023/10/18 06:34:22;;;;;;;;;;;;;;;12.73;100.00;100014.38;5117235;27;1326;-70
2023/10/18 06:36:49;;;;;;;;;;;;;;;12.79;100.00;100013.50;5135602;27;821;-69
2023/10/18 06:39:34;;;;;;;;;;;;;;;12.78;100.00;100020.25;5135510;27;878;-71
2023/10/18 06:42:06;;;;;;;;;;;;;;;12.91;100.00;100016.94;5116913;27;1345;-67
2023/10/18 06:44:33;;;;;;;;;;;;;;;13.00;100.00;100028.34;5135541;27;885;-69
2023/10/18 06:47:01;;;;;;;;;;;;;;;13.12;100.00;100022.25;5135389;27;907;-69
2023/10/18 06:49:27;;;;;;;;;;;;;;;13.30;100.00;100022.06;5135301;27;2341;-71
2023/10/18 06:51:56;;;;;;;;;;;;;;;13.58;100.00;100017.34;5135210;27;821;-70
2023/10/18 06:54:41;;;;;;;;;;;;;;;13.92;100.00;100006.13;5135343;27;825;-71
2023/10/18 06:57:18;;;;;;;;;;;;;;;14.22;100.00;100010.03;5135242;27;838;-69
2023/10/18 06:59:46;;;;;;;;;;;;;;;14.47;100.00;100009.59;5135121;27;877;-71
2023/10/18 07:02:13;;;;;;;;;;;;;;;14.73;100.00;100009.97;5134975;27;814;-71
2023/10/18 07:04:46;;;;;;;;;;;;;;;14.92;100.00;100008.44;5135065;27;817;-70
2023/10/18 07:07:19;;;;;;;;;;;;;;;15.13;100.00;100010.78;5134996;27;832;-71
2023/10/18 07:09:51;;;;;;;;;;;;;;;15.17;100.00;100019.03;5134654;27;1905;-71
2023/10/18 07:12:19;;;;;;;;;;;;;;;15.27;100.00;100020.84;5134836;27;866;-71
2023/10/18 07:14:46;;;;;;;;;;;;;;;15.10;100.00;100011.63;5116338;27;1281;-69
2023/10/18 07:17:14;;;;;;;;;;;;;;;15.15;100.00;100019.50;5134835;27;790;-68
2023/10/18 07:19:49;;;;;;;;;;;;;;;15.28;100.00;100009.28;5134706;27;798;-70
2023/10/18 07:22:39;;;;;;;;;;;;;;;15.46;100.00;100011.66;5134707;27;915;-68
2023/10/18 07:25:08;;;;;;;;;;;;;;;15.49;100.00;100015.59;5134679;27;923;-71
2023/10/18 07:40:08;;;;;;;;;;;;;;;15.63;100.00;100020.06;5011274;28;974;-75
2023/10/18 07:42:34;;;;;;;;;;;;;;;15.98;100.00;100018.50;4994887;28;1344;-74
2023/10/18 07:45:04;;;;;;;;;;;;;;;16.10;100.00;100014.25;5011327;28;840;-74
2023/10/18 07:47:40;;;;;;;;;;;;;;;16.05;100.00;100018.34;4994160;28;1448;-75
2023/10/18 07:52:54;;;;;;;;;;;;;;;16.40;100.00;100020.69;5011280;28;704;-75
2023/10/18 07:55:21;;;;;;;;;;;;;;;16.33;100.00;100018.84;4994614;28;1350;-73
2023/10/18 07:57:48;;;;;;;;;;;;;;;16.36;100.00;100012.38;5011246;28;1310;-76
2023/10/18 08:00:32;;;;;;;;;;;;;;;16.76;100.00;100023.31;5011845;28;879;-74
2023/10/18 08:02:59;;;;;;;;;;;;;;;16.95;100.00;100027.22;5002488;28;1457;-76
2023/10/18 08:05:43;;;;;;;;;;;;;;;17.49;100.00;100023.69;5010970;28;831;-74
2023/10/18 08:08:10;;;;;;;;;;;;;;;17.97;100.00;100023.09;5010819;28;1002;-73
2023/10/18 08:10:36;;;;;;;;;;;;;;;18.60;100.00;100022.19;4994106;28;1910;-71
2023/10/18 08:13:16;;;;;;;;;;;;;;;18.84;100.00;100025.38;5010697;28;834;-73
2023/10/18 08:15:50;;;;;;;;;;;;;;;19.07;100.00;100021.34;5067063;28;957;-73
2023/10/18 08:18:17;;;;;;;;;;;;;;;19.37;100.00;100024.66;5092450;28;916;-74
2023/10/18 08:26:03;;;;;;;;;;;;;;;20.54;100.00;100015.59;5092535;28;699;-76
2023/10/18 08:28:38;;;;;;;;;;;;;;;20.37;100.00;100020.72;5092833;28;945;-72
2023/10/18 08:31:26;;;;;;;;;;;;;;;20.01;100.00;100017.81;5092310;28;1883;-75
2023/10/18 08:33:58;;;;;;;;;;;;;;;19.94;100.00;100022.47;5091521;28;1247;-75
2023/10/18 08:36:31;;;;;;;;;;;;;;;20.10;100.00;100029.06;5092966;28;849;-74
2023/10/18 08:38:57;;;;;;;;;;;;;;;20.22;100.00;100018.97;5091177;28;1122;-72
2023/10/18 08:41:31;;;;;;;;;;;;;;;20.12;100.00;100035.00;5092307;28;875;-73
2023/10/18 08:44:05;;;;;;;;;;;;;;;19.93;100.00;100029.34;5089854;28;1289;-76
2023/10/18 08:47:11;;;;;;;;;;;;;;;19.48;100.00;100027.06;5092482;28;932;-75
2023/10/18 08:50:08;;;;;;;;;;;;;;;19.34;100.00;100029.16;5090337;28;1968;-75
2023/10/18 09:22:13;;;;;;;;;;;;;;;18.79;100.00;100033.56;5591783;23;1734;-74
2023/10/18 09:24:44;;;;;;;;;;;;;;;18.86;100.00;100039.72;4992832;28;857;-73
2023/10/18 09:27:12;;;;;;;;;;;;;;;18.72;100.00;100040.19;4992445;28;869;-75
2023/10/18 09:29:48;;;;;;;;;;;;;;;18.94;100.00;100024.19;4992435;28;1965;-75
2023/10/18 09:32:32;;;;;;;;;;;;;;;18.89;100.00;100026.81;4995301;28;787;-74
2023/10/18 09:35:26;;;;;;;;;;;;;;;19.12;100.00;100031.19;4996488;28;823;-76
2023/10/18 09:38:03;;;;;;;;;;;;;;;19.21;100.00;100038.88;4984769;28;1151;-76
2023/10/18 09:40:30;;;;;;;;;;;;;;;19.22;100.00;100035.59;4975980;28;1355;-75
2023/10/18 09:42:57;;;;;;;;;;;;;;;19.16;100.00;100041.03;4996309;28;827;-76
2023/10/18 09:45:23;;;;;;;;;;;;;;;19.06;100.00;100036.59;4996368;28;830;-77
2023/10/18 09:47:50;;;;;;;;;;;;;;;18.97;100.00;100028.91;4996597;28;831;-75
2023/10/18 09:50:24;;;;;;;;;;;;;;;18.77;100.00;100025.59;4978303;28;1882;-70
2023/10/18 09:52:56;;;;;;;;;;;;;;;18.56;100.00;100030.72;4995924;28;1231;-73
2023/10/18 09:55:25;;;;;;;;;;;;;;;18.39;100.00;100032.06;4995798;28;823;-72
2023/10/18 09:58:04;;;;;;;;;;;;;;;18.42;100.00;100022.78;4995949;28;870;-73
2023/10/18 10:00:47;;;;;;;;;;;;;;;18.36;100.00;100024.59;4995906;28;791;-71
2023/10/18 10:03:24;;;;;;;;;;;;;;;18.38;100.00;100024.16;4978146;28;1459;-72
2023/10/18 10:05:51;;;;;;;;;;;;;;;18.22;100.00;100019.47;4978175;28;1318;-71
2023/10/18 10:08:23;;;;;;;;;;;;;;;18.16;100.00;100022.84;4995550;28;931;-71
2023/10/18 10:10:50;;;;;;;;;;;;;;;18.09;100.00;100017.50;4978041;28;1899;-71
2023/10/18 10:13:27;;;;;;;;;;;;;;;17.82;100.00;100014.34;4995481;28;903;-71
2023/10/18 10:16:08;;;;;;;;;;;;;;;17.86;100.00;100012.22;4995466;28;890;-71
2023/10/18 10:18:38;;;;;;;;;;;;;;;17.95;100.00;100017.94;4995350;28;928;-70
2023/10/18 10:21:08;;;;;;;;;;;;;;;18.00;100.00;100019.38;4995564;28;1039;-70
2023/10/18 10:23:40;;;;;;;;;;;;;;;17.92;100.00;100018.81;4995115;28;1253;-70
2023/10/18 10:26:22;;;;;;;;;;;;;;;18.07;100.00;100013.56;4995717;28;838;-69
2023/10/18 10:31:53;;;;;;;;;;;;;;;18.80;100.00;100012.72;4995096;28;669;-70
2023/10/18 10:34:26;;;;;;;;;;;;;;;19.00;100.00;100012.44;4995098;28;1111;-70
2023/10/18 10:37:12;;;;;;;;;;;;;;;19.13;100.00;100011.13;4994949;28;812;-70
2023/10/18 10:42:43;;;;;;;;;;;;;;;19.19;100.00;100002.91;4973600;28;1095;-73
2023/10/18 10:45:23;;;;;;;;;;;;;;;19.44;100.00;100001.97;4994809;28;882;-71
2023/10/18 10:47:55;;;;;;;;;;;;;;;19.57;100.00;99994.25;4995121;28;863;-72
2023/10/18 10:50:51;;;;;;;;;;;;;;;19.84;100.00;99998.44;4994584;28;1959;-72
2023/10/18 10:53:34;;;;;;;;;;;;;;;20.07;100.00;99988.69;4976636;28;1294;-73
2023/10/18 10:56:17;;;;;;;;;;;;;;;20.07;100.00;99985.88;4994781;28;804;-71
2023/10/18 10:58:46;;;;;;;;;;;;;;;19.66;100.00;99979.50;4994609;28;846;-71
2023/10/18 11:01:13;;;;;;;;;;;;;;;19.71;100.00;99973.31;4994809;28;910;-71
2023/10/18 11:04:49;;;;;;;;;;;;;;;19.65;100.00;99977.16;4976992;28;1316;-71
2023/10/18 11:06:44;;;;;;;;;;;;;;;19.37;100.00;99974.22;4978134;28;1319;-71
2023/10/18 11:09:17;;;;;;;;;;;;;;;18.93;100.00;99968.66;4994692;28;1882;-70
2023/10/18 11:11:47;;;;;;;;;;;;;;;18.50;100.00;99972.97;4994419;28;1092;-75
2023/10/18 11:14:22;;;;;;;;;;;;;;;18.17;100.00;99970.47;4977078;28;1596;-74
2023/10/18 11:16:53;;;;;;;;;;;;;;;17.90;100.00;99973.75;4976906;28;1356;-71
2023/10/18 11:19:28;;;;;;;;;;;;;;;17.78;100.00;99971.72;4994371;28;794;-71
2023/10/18 11:21:58;;;;;;;;;;;;;;;17.59;100.00;99963.13;4993946;28;1342;-73
2023/10/18 11:24:26;;;;;;;;;;;;;;;17.47;100.00;99975.84;4994425;28;907;-74
2023/10/18 11:26:54;;;;;;;;;;;;;;;17.44;100.00;99981.56;4994970;28;795;-74
2023/10/18 11:29:24;;;;;;;;;;;;;;;17.39;100.00;99971.72;4976651;28;1977;-74
2023/10/18 11:32:00;;;;;;;;;;;;;;;17.42;100.00;99976.41;4977021;28;1351;-74
2023/10/18 11:34:27;;;;;;;;;;;;;;;17.36;100.00;99978.19;4994158;28;827;-74
2023/10/18 11:37:01;;;;;;;;;;;;;;;17.25;100.00;99975.72;4976781;28;887;-74
2023/10/18 11:39:33;;;;;;;;;;;;;;;17.23;100.00;99975.38;4994203;28;842;-74
2023/10/18 11:42:03;;;;;;;;;;;;;;;17.35;100.00;99985.78;4976624;28;1293;-74
2023/10/18 11:44:36;;;;;;;;;;;;;;;17.48;100.00;99985.03;4994097;28;823;-74
2023/10/18 11:47:29;;;;;;;;;;;;;;;17.28;100.00;99979.63;4994044;28;811;-74
2023/10/18 11:49:57;;;;;;;;;;;;;;;17.25;100.00;99977.72;4993152;28;1899;-74
2023/10/18 11:52:25;;;;;;;;;;;;;;;17.48;100.00;99971.84;4994013;28;870;-74
2023/10/18 11:54:54;;;;;;;;;;;;;;;17.66;100.00;99974.06;4993163;28;875;-72
2023/10/18 11:57:38;;;;;;;;;;;;;;;17.84;100.00;99975.56;4993636;28;876;-73
2023/10/18 12:02:55;;;;;;;;;;;;;;;18.01;100.00;99970.59;4993629;28;676;-74
2023/10/18 12:05:42;;;;;;;;;;;;;;;17.91;100.00;99973.31;4993670;28;830;-73
2023/10/18 12:08:13;;;;;;;;;;;;;;;17.93;100.00;99970.06;4993436;28;1147;-72
2023/10/18 12:10:39;;;;;;;;;;;;;;;18.73;100.00;99963.34;4993186;28;1890;-73
2023/10/18 12:13:07;;;;;;;;;;;;;;;20.11;100.00;99957.69;4975851;28;1165;-70
2023/10/18 12:15:37;;;;;;;;;;;;;;;20.11;100.00;99954.88;4993174;28;823;-74
2023/10/18 12:18:04;;;;;;;;;;;;;;;20.03;100.00;99957.19;4993338;28;855;-74
2023/10/18 12:23:25;;;;;;;;;;;;;;;19.77;100.00;99960.25;4991350;28;1382;-74
2023/10/18 12:25:51;;;;;;;;;;;;;;;19.75;100.00;99959.16;4993162;28;834;-75
2023/10/18 12:28:19;;;;;;;;;;;;;;;19.54;100.00;99961.56;4975949;28;1343;-75
2023/10/18 12:30:55;;;;;;;;;;;;;;;19.20;100.00;99965.25;4993034;28;1907;-75
2023/10/18 12:33:33;;;;;;;;;;;;;;;18.95;100.00;99955.75;4975655;28;1269;-75
2023/10/18 12:36:00;;;;;;;;;;;;;;;18.73;100.00;99952.94;4993180;28;814;-73
2023/10/18 12:38:33;;;;;;;;;;;;;;;18.69;100.00;99949.50;4992941;28;847;-73
2023/10/18 12:41:01;;;;;;;;;;;;;;;18.49;100.00;99949.78;4975638;28;1229;-73
2023/10/18 12:43:32;;;;;;;;;;;;;;;18.28;100.00;99951.28;4993200;28;977;-75
2023/10/18 12:46:00;;;;;;;;;;;;;;;17.85;100.00;99902.41;4992892;28;865;-73
2023/10/18 12:48:27;;;;;;;;;;;;;;;18.20;100.00;99950.00;4975213;28;1242;-73
2023/10/18 12:50:55;;;;;;;;;;;;;;;18.22;100.00;99957.91;4992786;28;1886;-74
2023/10/18 12:58:47;;;;;;;;;;;;;;;17.83;100.00;99954.41;4992952;28;816;-70
2023/10/18 13:01:14;;;;;;;;;;;;;;;17.68;100.00;99957.63;4992503;28;828;-71
2023/10/18 13:03:44;;;;;;;;;;;;;;;17.60;100.00;99947.91;4992608;28;878;-71
2023/10/18 13:06:17;;;;;;;;;;;;;;;17.63;100.00;99952.59;4992402;28;823;-72
2023/10/18 13:09:15;;;;;;;;;;;;;;;17.68;100.00;99952.03;4975041;28;1415;-70
2023/10/18 13:14:14;;;;;;;;;;;;;;;17.46;100.00;99942.78;4992381;28;605;-70
2023/10/18 13:16:42;;;;;;;;;;;;;;;17.40;100.00;99942.53;4992492;28;906;-70
2023/10/18 13:19:15;;;;;;;;;;;;;;;17.37;100.00;99937.06;4992290;28;834;-70
2023/10/18 13:21:43;;;;;;;;;;;;;;;17.40;100.00;99950.91;4992199;28;1489;-69
2023/10/18 13:26:55;;;;;;;;;;;;;;;17.39;100.00;99951.34;4992370;28;714;-70
2023/10/18 13:31:49;;;;;;;;;;;;;;;17.30;100.00;99947.25;4992237;28;853;-70
2023/10/18 13:34:19;;;;;;;;;;;;;;;17.30;100.00;99952.81;4992406;28;886;-70
2023/10/18 13:36:54;;;;;;;;;;;;;;;17.40;100.00;99948.13;4992274;28;846;-70
2023/10/18 13:39:24;;;;;;;;;;;;;;;17.50;100.00;99949.03;4992204;28;818;-70
2023/10/18 13:41:50;;;;;;;;;;;;;;;17.58;100.00;99950.38;4992177;28;846;-70
2023/10/18 13:44:23;;;;;;;;;;;;;;;17.51;100.00;99953.38;4992604;28;937;-71
2023/10/18 13:47:00;;;;;;;;;;;;;;;17.37;100.00;99951.03;4992047;28;921;-71
2023/10/18 13:49:28;;;;;;;;;;;;;;;17.38;100.00;99955.41;4992201;28;1952;-71
2023/10/18 13:51:54;;;;;;;;;;;;;;;17.44;100.00;99948.03;4974698;28;1373;-71
2023/10/18 13:54:21;;;;;;;;;;;;;;;17.43;100.00;99960.41;4992112;28;878;-71
2023/10/18 13:56:49;;;;;;;;;;;;;;;17.36;100.00;99955.81;4992386;28;847;-71
2023/10/18 13:59:16;;;;;;;;;;;;;;;17.22;100.00;99956.25;4992367;28;803;-69
2023/10/18 14:01:43;;;;;;;;;;;;;;;17.09;100.00;99959.03;4992330;28;873;-69
2023/10/18 14:04:13;;;;;;;;;;;;;;;17.05;100.00;99947.19;4992388;28;788;-69
2023/10/18 14:06:40;;;;;;;;;;;;;;;17.01;100.00;99936.13;4974518;28;1228;-69
2023/10/18 14:09:13;;;;;;;;;;;;;;;16.84;100.00;99938.19;4991821;28;1898;-69
2023/10/18 14:11:40;;;;;;;;;;;;;;;16.63;100.00;99938.78;4992037;28;877;-70
2023/10/18 14:14:07;;;;;;;;;;;;;;;16.50;100.00;99945.06;4991818;28;803;-69
2023/10/18 14:16:37;;;;;;;;;;;;;;;16.36;100.00;99939.09;4974435;28;2180;-71
2023/10/18 14:19:07;;;;;;;;;;;;;;;16.26;100.00;99938.94;4995380;28;992;-72
2023/10/18 14:21:33;;;;;;;;;;;;;;;16.08;100.00;99941.41;4995209;28;1430;-71
2023/10/18 14:24:05;;;;;;;;;;;;;;;15.90;100.00;99945.41;4995300;28;828;-70
2023/10/18 14:26:34;;;;;;;;;;;;;;;15.82;100.00;99934.88;4995318;28;820;-70
2023/10/18 14:29:03;;;;;;;;;;;;;;;15.79;100.00;99938.53;4995469;28;1213;-71
2023/10/18 14:31:30;;;;;;;;;;;;;;;15.74;100.00;99930.69;4995191;28;1963;-71
2023/10/18 14:33:57;;;;;;;;;;;;;;;15.66;100.00;99933.63;4995142;28;796;-70
2023/10/18 14:36:24;;;;;;;;;;;;;;;15.51;100.00;99929.59;4995010;28;905;-70
2023/10/18 14:38:50;;;;;;;;;;;;;;;15.37;100.00;99930.72;4995256;28;887;-71
2023/10/18 14:41:24;;;;;;;;;;;;;;;15.23;100.00;99931.78;4977640;28;1298;-71
2023/10/18 14:43:51;;;;;;;;;;;;;;;15.14;100.00;99931.59;4995396;28;1022;-71
2023/10/18 14:46:19;;;;;;;;;;;;;;;15.09;100.00;99932.91;4994809;28;847;-69
2023/10/18 14:48:46;;;;;;;;;;;;;;;15.04;100.00;99933.41;4994945;28;879;-69
2023/10/18 14:51:13;;;;;;;;;;;;;;;15.03;100.00;99929.06;4994700;28;1886;-69
2023/10/18 14:53:44;;;;;;;;;;;;;;;15.03;100.00;99937.41;4994816;28;874;-70
2023/10/18 14:56:14;;;;;;;;;;;;;;;14.97;100.00;99932.78;4977297;28;1230;-70
2023/10/18 14:58:42;;;;;;;;;;;;;;;14.85;100.00;99945.31;4977155;28;1535;-70
2023/10/18 15:01:12;;;;;;;;;;;;;;;14.70;100.00;99947.59;4994721;28;845;-70
2023/10/18 15:03:39;;;;;;;;;;;;;;;14.52;100.00;99941.59;4977043;28;1322;-70
2023/10/18 15:06:09;;;;;;;;;;;;;;;14.26;100.00;99944.03;4994679;28;842;-70